Time;durP1;ratioP1;P1;durP2;ratioP2;P2;SDS_P1;SDS_P2;PMS_P1;PMS_P2;Temp;Humidity;BMP_temperature;BMP_pressure;BME280_temperature;BME280_humidity;BME280_pressure;Samples;Min_cycle;Max_cycle;Signal;HPM_P1;HPM_P2
2022/10/10 00:00:38;;;;;;;1999.90;999.90;;;;;;;9.96;100.00;94667.19;5056254;28;20204;-69
2022/10/10 00:03:04;;;;;;;1999.90;999.90;;;;;;;9.91;100.00;94656.72;5056465;28;20186;-68
2022/10/10 00:05:30;;;;;;;1999.90;999.90;;;;;;;9.87;100.00;94653.31;5055560;28;20261;-68
2022/10/10 00:07:55;;;;;;;1999.90;999.90;;;;;;;9.79;100.00;94651.88;5055692;28;20205;-68
2022/10/10 00:10:20;;;;;;;1999.90;999.90;;;;;;;9.74;100.00;94646.91;5055634;28;20174;-69
2022/10/10 00:12:46;;;;;;;1999.90;999.90;;;;;;;9.80;100.00;94631.59;5056189;28;20170;-69
2022/10/10 00:15:13;;;;;;;1999.90;999.90;;;;;;;9.82;100.00;94629.25;5056013;28;20174;-66
2022/10/10 00:17:41;;;;;;;1999.90;999.90;;;;;;;9.90;100.00;94617.03;5055845;28;20210;-60
2022/10/10 00:20:07;;;;;;;1999.90;999.90;;;;;;;9.95;100.00;94607.59;5056022;28;20221;-56
2022/10/10 00:22:32;;;;;;;1999.90;999.90;;;;;;;10.01;100.00;94601.22;5055166;28;20192;-56
2022/10/10 00:24:57;;;;;;;1999.90;999.90;;;;;;;10.03;100.00;94595.34;5054929;28;20211;-57
2022/10/10 00:27:23;;;;;;;1999.90;999.90;;;;;;;10.07;100.00;94585.97;5055071;28;20174;-57
2022/10/10 00:29:48;;;;;;;1999.90;999.90;;;;;;;10.10;100.00;94582.38;5055514;28;20174;-57
2022/10/10 00:32:14;;;;;;;1999.90;999.90;;;;;;;10.14;100.00;94569.41;5055315;28;20273;-60
2022/10/10 00:34:39;;;;;;;1999.90;999.90;;;;;;;10.18;100.00;94563.13;5055635;28;20170;-68
2022/10/10 00:37:04;;;;;;;1999.90;999.90;;;;;;;10.22;100.00;94552.91;5055107;28;20178;-74
2022/10/10 00:39:30;;;;;;;1999.90;999.90;;;;;;;10.27;100.00;94544.25;5054887;28;20209;-76
2022/10/10 00:41:55;;;;;;;1999.90;999.90;;;;;;;10.33;100.00;94539.81;5054808;28;20178;-82
2022/10/10 00:44:21;;;;;;;1999.90;999.90;;;;;;;10.38;100.00;94533.88;5055858;28;20236;-77
2022/10/10 00:46:46;;;;;;;1999.90;999.90;;;;;;;10.43;100.00;94530.63;5055470;28;20228;-76
2022/10/10 00:49:18;;;;;;;1999.90;999.90;;;;;;;10.46;100.00;94522.38;5055396;28;20186;-76
2022/10/10 00:51:47;;;;;;;1999.90;999.90;;;;;;;10.50;100.00;94514.09;5055371;28;20185;-66
2022/10/10 00:54:15;;;;;;;1999.90;999.90;;;;;;;10.54;100.00;94507.38;5054615;28;20178;-69
2022/10/10 00:56:47;;;;;;;1999.90;999.90;;;;;;;10.59;100.00;94497.94;5054826;28;20181;-69
2022/10/10 00:59:13;;;;;;;1999.90;999.90;;;;;;;10.63;100.00;94495.88;5055166;28;20203;-68
2022/10/10 01:01:40;;;;;;;1999.90;999.90;;;;;;;10.70;100.00;94493.00;5055099;28;20181;-67
2022/10/10 01:04:05;;;;;;;1999.90;999.90;;;;;;;10.73;100.00;94481.19;5054560;28;20290;-69
2022/10/10 01:06:32;;;;;;;1999.90;999.90;;;;;;;10.75;100.00;94476.09;5054629;28;20182;-69
2022/10/10 01:08:59;;;;;;;1999.90;999.90;;;;;;;10.77;100.00;94484.59;5054614;28;20175;-58
2022/10/10 01:12:03;;;;;;;1999.90;999.90;;;;;;;10.80;100.00;94467.38;5054542;28;20208;-58
2022/10/10 01:14:50;;;;;;;1999.90;999.90;;;;;;;10.78;100.00;94464.31;5043706;28;20219;-74
2022/10/10 01:17:15;;;;;;;1999.90;999.90;;;;;;;10.79;100.00;94465.84;5054933;28;20181;-76
2022/10/10 01:20:03;;;;;;;1999.90;999.90;;;;;;;10.78;100.00;94451.41;5054138;28;20222;-76
2022/10/10 01:22:58;;;;;;;1999.90;999.90;;;;;;;10.76;100.00;94442.91;5054882;28;20181;-75
2022/10/10 01:25:28;;;;;;;1999.90;999.90;;;;;;;10.78;100.00;94437.00;5054829;28;20311;-77
2022/10/10 01:28:01;;;;;;;1999.90;999.90;;;;;;;10.80;100.00;94434.59;5054757;28;20185;-61
2022/10/10 01:30:28;;;;;;;1999.90;999.90;;;;;;;10.81;100.00;94428.72;5054432;28;20173;-66
2022/10/10 01:33:07;;;;;;;1999.90;999.90;;;;;;;10.85;100.00;94425.91;5054466;28;20750;-67
2022/10/10 01:35:32;;;;;;;1999.90;999.90;;;;;;;10.83;100.00;94422.84;5054585;28;20170;-68
2022/10/10 01:38:04;;;;;;;1999.90;999.90;;;;;;;10.83;100.00;94422.84;5054432;28;20176;-67
2022/10/10 01:40:35;;;;;;;1999.90;999.90;;;;;;;10.87;100.00;94418.03;5053498;28;20206;-66
2022/10/10 01:43:04;;;;;;;1999.90;999.90;;;;;;;10.89;100.00;94421.88;5054421;28;20178;-67
2022/10/10 01:45:30;;;;;;;1999.90;999.90;;;;;;;10.90;100.00;94417.19;5053694;28;20170;-68
2022/10/10 01:48:01;;;;;;;1999.90;999.90;;;;;;;10.90;100.00;94417.19;5054379;28;20277;-67
2022/10/10 01:50:28;;;;;;;1999.90;999.90;;;;;;;10.92;100.00;94414.81;5054431;28;20610;-77
2022/10/10 01:53:18;;;;;;;1999.90;999.90;;;;;;;10.93;100.00;94410.88;5053601;28;20277;-77
2022/10/10 01:55:56;;;;;;;1999.90;999.90;;;;;;;10.88;100.00;94403.19;5053685;28;20207;-76
2022/10/10 01:58:37;;;;;;;1999.90;999.90;;;;;;;10.89;100.00;94388.34;5053920;28;20228;-76
2022/10/10 02:01:33;;;;;;;1999.90;999.90;;;;;;;10.91;100.00;94391.41;5054351;28;20209;-76
2022/10/10 02:04:40;;;;;;;1999.90;999.90;;;;;;;10.91;100.00;94385.94;5053347;28;20197;-66
2022/10/10 02:07:29;;;;;;;1999.90;999.90;;;;;;;10.96;100.00;94378.00;5054057;28;20175;-68
2022/10/10 02:09:58;;;;;;;1999.90;999.90;;;;;;;10.95;100.00;94379.19;5053106;28;20244;-68
2022/10/10 02:12:27;;;;;;;1999.90;999.90;;;;;;;10.99;100.00;94379.09;5054271;28;20205;-68
2022/10/10 02:14:57;;;;;;;1999.90;999.90;;;;;;;11.02;100.00;94370.03;5053504;28;20186;-69
2022/10/10 02:17:25;;;;;;;1999.90;999.90;;;;;;;11.03;100.00;94371.59;5053257;28;20175;-69
2022/10/10 02:19:58;;;;;;;1999.90;999.90;;;;;;;11.04;100.00;94375.84;5053397;28;20229;-69
2022/10/10 02:22:25;;;;;;;1999.90;999.90;;;;;;;11.05;100.00;94369.19;5053461;28;20233;-55
2022/10/10 02:24:52;;;;;;;1999.90;999.90;;;;;;;11.06;100.00;94373.44;5053127;28;20185;-69
2022/10/10 02:27:27;;;;;;;1999.90;999.90;;;;;;;11.06;100.00;94381.66;5053986;28;20174;-69
2022/10/10 02:29:55;;;;;;;1999.90;999.90;;;;;;;11.07;100.00;94372.28;5054026;28;20174;-69
2022/10/10 02:32:31;;;;;;;1999.90;999.90;;;;;;;11.07;100.00;94377.75;5053231;28;20179;-67
2022/10/10 02:35:02;;;;;;;1999.90;999.90;;;;;;;11.08;100.00;94374.56;5053470;28;20161;-69
2022/10/10 02:37:28;;;;;;;1999.90;999.90;;;;;;;11.07;100.00;94370.28;5053367;28;20168;-68
2022/10/10 02:39:59;;;;;;;1999.90;999.90;;;;;;;11.08;100.00;94379.25;5052975;28;20289;-67
2022/10/10 02:42:26;;;;;;;1999.90;999.90;;;;;;;11.11;100.00;94375.66;5057032;28;20238;-68
2022/10/10 02:44:53;;;;;;;1999.90;999.90;;;;;;;11.10;100.00;94374.13;5057266;28;20175;-65
2022/10/10 02:47:19;;;;;;;1999.90;999.90;;;;;;;11.11;100.00;94372.94;5057209;28;20178;-65
2022/10/10 02:49:44;;;;;;;1999.90;999.90;;;;;;;11.07;100.00;94373.03;5057133;28;20188;-65
2022/10/10 02:52:13;;;;;;;1999.90;999.90;;;;;;;11.08;100.00;94373.78;5057072;28;20183;-65
2022/10/10 02:54:39;;;;;;;1999.90;999.90;;;;;;;11.11;100.00;94373.69;5057237;28;20615;-64
2022/10/10 02:57:05;;;;;;;1999.90;999.90;;;;;;;11.10;100.00;94371.38;5057985;28;20174;-64
2022/10/10 02:59:30;;;;;;;1999.90;999.90;;;;;;;11.14;100.00;94366.63;5057655;28;20597;-81
2022/10/10 03:01:55;;;;;;;1999.90;999.90;;;;;;;11.13;100.00;94365.84;5056973;28;20231;-69
2022/10/10 03:04:21;;;;;;;1999.90;999.90;;;;;;;11.15;100.00;94373.59;5056973;28;20198;-59
2022/10/10 03:06:46;;;;;;;1999.90;999.90;;;;;;;11.11;100.00;94367.47;5057000;28;20178;-59
2022/10/10 03:09:11;;;;;;;1999.90;999.90;;;;;;;11.10;100.00;94368.66;5057100;28;20189;-59
2022/10/10 03:11:37;;;;;;;1999.90;999.90;;;;;;;11.13;100.00;94381.47;5056453;28;20256;-58
2022/10/10 03:14:02;;;;;;;1999.90;999.90;;;;;;;11.12;100.00;94382.66;5056787;28;20184;-59
2022/10/10 03:16:27;;;;;;;1999.90;999.90;;;;;;;11.13;100.00;94376.00;5056533;28;20564;-59
2022/10/10 03:18:53;;;;;;;1999.90;999.90;;;;;;;11.15;100.00;94373.59;5056117;28;20190;-67
2022/10/10 03:21:18;;;;;;;1999.90;999.90;;;;;;;11.16;100.00;94377.88;5057016;28;20181;-65
2022/10/10 03:23:43;;;;;;;1999.90;999.90;;;;;;;11.13;100.00;94378.72;5056626;28;20232;-66
2022/10/10 03:26:09;;;;;;;1999.90;999.90;;;;;;;11.15;100.00;94379.06;5057622;28;20183;-65
2022/10/10 03:28:35;;;;;;;1999.90;999.90;;;;;;;11.17;100.00;94376.66;5056979;28;20175;-65
2022/10/10 03:31:01;;;;;;;1999.90;999.90;;;;;;;11.15;100.00;94374.34;5056219;28;20210;-65
2022/10/10 03:33:26;;;;;;;1999.90;999.90;;;;;;;11.13;100.00;94365.06;5056976;28;20208;-65
2022/10/10 03:35:51;;;;;;;1999.90;999.90;;;;;;;11.10;100.00;94377.63;5056402;28;20212;-65
2022/10/10 03:38:17;;;;;;;1999.90;999.90;;;;;;;11.10;100.00;94376.84;5056219;28;20180;-60
2022/10/10 03:40:43;;;;;;;1999.90;999.90;;;;;;;11.07;100.00;94372.28;5055841;28;20236;-62
2022/10/10 03:43:10;;;;;;;1999.90;999.90;;;;;;;11.05;100.00;94372.69;5056325;28;20185;-60
2022/10/10 03:45:35;;;;;;;1999.90;999.90;;;;;;;11.01;100.00;94384.91;5056794;28;20179;-60
2022/10/10 03:48:01;;;;;;;1999.90;999.90;;;;;;;10.95;100.00;94381.16;5056216;28;20174;-60
2022/10/10 03:50:26;;;;;;;1999.90;999.90;;;;;;;10.92;100.00;94374.59;5055796;28;20178;-60
2022/10/10 03:52:52;;;;;;;1999.90;999.90;;;;;;;10.84;100.00;94391.59;5055579;28;20280;-60
2022/10/10 03:55:17;;;;;;;1999.90;999.90;;;;;;;10.82;100.00;94388.53;5056022;28;20227;-60
2022/10/10 03:57:42;;;;;;;1999.90;999.90;;;;;;;10.78;100.00;94388.59;5056529;28;20177;-55
2022/10/10 04:00:09;;;;;;;1999.90;999.90;;;;;;;10.75;100.00;94399.63;5056302;28;20297;-56
2022/10/10 04:02:35;;;;;;;1999.90;999.90;;;;;;;10.68;100.00;94392.41;5055848;28;20211;-56
2022/10/10 04:05:00;;;;;;;1999.90;999.90;;;;;;;10.61;100.00;94398.03;5055708;28;20198;-55
2022/10/10 04:07:25;;;;;;;1999.90;999.90;;;;;;;10.58;100.00;94390.69;5055828;28;20178;-57
2022/10/10 04:09:51;;;;;;;1999.90;999.90;;;;;;;10.58;100.00;94396.16;5055799;28;20182;-57
2022/10/10 04:12:16;;;;;;;1999.90;999.90;;;;;;;10.59;100.00;94391.47;5055703;28;20186;-57
2022/10/10 04:14:41;;;;;;;1999.90;999.90;;;;;;;10.59;100.00;94392.22;5055594;28;20239;-60
2022/10/10 04:17:07;;;;;;;1999.90;999.90;;;;;;;10.54;100.00;94389.22;5055834;28;20181;-60
2022/10/10 04:19:32;;;;;;;1999.90;999.90;;;;;;;10.54;100.00;94391.97;5055081;28;20234;-60
2022/10/10 04:21:58;;;;;;;1999.90;999.90;;;;;;;10.52;100.00;94392.38;5056067;28;20179;-60
2022/10/10 04:24:23;;;;;;;1999.90;999.90;;;;;;;10.53;100.00;94393.16;5055536;28;20186;-58
2022/10/10 04:26:49;;;;;;;1999.90;999.90;;;;;;;10.55;100.00;94390.75;5055870;28;20261;-59
2022/10/10 04:29:14;;;;;;;1999.90;999.90;;;;;;;10.51;100.00;94401.00;5055361;28;20177;-59
2022/10/10 04:31:39;;;;;;;1999.90;999.90;;;;;;;10.49;100.00;94395.22;5055439;28;20185;-71
2022/10/10 04:34:05;;;;;;;1999.90;999.90;;;;;;;10.44;100.00;94401.16;5055525;28;20173;-66
2022/10/10 04:36:30;;;;;;;1999.90;999.90;;;;;;;10.47;100.00;94400.31;5055433;28;20539;-56
2022/10/10 04:38:56;;;;;;;1999.90;999.90;;;;;;;10.49;100.00;94397.94;5055144;28;20269;-56
2022/10/10 04:41:21;;;;;;;1999.90;999.90;;;;;;;10.50;100.00;94394.78;5055115;28;20304;-57
2022/10/10 04:43:46;;;;;;;1999.90;999.90;;;;;;;10.51;100.00;94388.13;5055571;28;20201;-57
2022/10/10 04:46:12;;;;;;;1999.90;999.90;;;;;;;10.55;100.00;94385.28;5055243;28;20201;-57
2022/10/10 04:48:37;;;;;;;1999.90;999.90;;;;;;;10.55;100.00;94386.06;5054987;28;20182;-57
2022/10/10 04:51:03;;;;;;;1999.90;999.90;;;;;;;10.55;100.00;94383.34;5055181;28;20266;-57
2022/10/10 04:53:28;;;;;;;1999.90;999.90;;;;;;;10.58;100.00;94384.44;5055002;28;20174;-68
2022/10/10 04:55:53;;;;;;;1999.90;999.90;;;;;;;10.58;100.00;94379.78;5054794;28;20177;-69
2022/10/10 04:58:19;;;;;;;1999.90;999.90;;;;;;;10.59;100.00;94386.00;5055206;28;20169;-69
2022/10/10 05:00:44;;;;;;;1999.90;999.90;;;;;;;10.57;100.00;94382.91;5054309;28;20197;-69
2022/10/10 05:03:11;;;;;;;1999.90;999.90;;;;;;;10.56;100.00;94386.84;5054649;28;20264;-68
2022/10/10 05:05:37;;;;;;;1999.90;999.90;;;;;;;10.57;100.00;94388.38;5054934;28;20228;-68
2022/10/10 05:08:03;;;;;;;1999.90;999.90;;;;;;;10.60;100.00;94379.34;5054821;28;20166;-59
2022/10/10 05:10:28;;;;;;;1999.90;999.90;;;;;;;10.60;100.00;94385.56;5054626;28;20220;-59
2022/10/10 05:12:54;;;;;;;1999.90;999.90;;;;;;;10.62;100.00;94387.84;5054795;28;20169;-57
2022/10/10 05:15:20;;;;;;;1999.90;999.90;;;;;;;10.64;100.00;94389.00;5054615;28;20176;-57
2022/10/10 05:17:46;;;;;;;1999.90;999.90;;;;;;;10.62;100.00;94385.91;5054602;28;20170;-57
2022/10/10 05:20:12;;;;;;;1999.90;999.90;;;;;;;10.63;100.00;94390.16;5054005;28;20237;-58
2022/10/10 05:22:40;;;;;;;1999.90;999.90;;;;;;;10.61;100.00;94383.59;5054277;28;20166;-57
2022/10/10 05:25:06;;;;;;;1999.90;999.90;;;;;;;10.60;100.00;94393.00;5054433;28;20208;-58
2022/10/10 05:27:32;;;;;;;1999.90;999.90;;;;;;;10.58;100.00;94393.41;5054261;28;20210;-64
2022/10/10 05:29:57;;;;;;;1999.90;999.90;;;;;;;10.56;100.00;94392.31;5054029;28;20213;-60
2022/10/10 05:32:22;;;;;;;1999.90;999.90;;;;;;;10.54;100.00;94391.97;5054084;28;20210;-60
2022/10/10 05:34:48;;;;;;;1999.90;999.90;;;;;;;10.52;100.00;94397.84;5054001;28;20173;-60
2022/10/10 05:37:13;;;;;;;1999.90;999.90;;;;;;;10.52;100.00;94399.81;5054027;28;20175;-60
2022/10/10 05:39:39;;;;;;;1999.90;999.90;;;;;;;10.48;100.00;94402.63;5054070;28;20201;-60
2022/10/10 05:42:04;;;;;;;1999.90;999.90;;;;;;;10.47;100.00;94408.50;5053922;28;20178;-60
2022/10/10 05:44:32;;;;;;;1999.90;999.90;;;;;;;10.46;100.00;94404.25;5053932;28;20178;-59
2022/10/10 05:46:58;;;;;;;1999.90;999.90;;;;;;;10.46;100.00;94415.16;5054950;28;20178;-57
2022/10/10 05:49:23;;;;;;;1999.90;999.90;;;;;;;10.48;100.00;94418.25;5053875;28;20173;-65
2022/10/10 05:51:48;;;;;;;1999.90;999.90;;;;;;;10.50;100.00;94415.84;5053754;28;20175;-66
2022/10/10 05:54:14;;;;;;;1999.90;999.90;;;;;;;10.54;100.00;94421.97;5054149;28;20176;-66
2022/10/10 05:56:39;;;;;;;1999.90;999.90;;;;;;;10.59;100.00;94424.22;5053215;28;20176;-64
2022/10/10 05:59:05;;;;;;;1999.90;999.90;;;;;;;10.67;100.00;94420.13;5053544;28;20261;-63
2022/10/10 06:01:31;;;;;;;1999.90;999.90;;;;;;;10.84;100.00;94408.75;5053543;28;20181;-63
2022/10/10 06:03:56;;;;;;;1999.90;999.90;;;;;;;11.13;100.00;94404.09;5053515;28;20225;-69
2022/10/10 06:06:22;;;;;;;1999.90;999.90;;;;;;;11.56;100.00;94388.06;5054105;28;20170;-61
2022/10/10 06:08:48;;;;;;;1999.90;999.90;;;;;;;11.84;100.00;94392.00;5053541;28;20210;-62
2022/10/10 06:11:16;;;;;;;1999.90;999.90;;;;;;;11.90;100.00;94395.69;5053992;28;20178;-62
2022/10/10 06:13:41;;;;;;;1999.90;999.90;;;;;;;11.88;100.00;94412.53;5053119;28;20169;-61
2022/10/10 06:16:07;;;;;;;1999.90;999.90;;;;;;;11.80;100.00;94424.91;5052888;28;20183;-61
2022/10/10 06:18:32;;;;;;;1999.90;999.90;;;;;;;11.59;100.00;94436.44;5053597;28;20182;-62
2022/10/10 06:21:02;;;;;;;1999.90;999.90;;;;;;;11.54;100.00;94449.88;5052858;28;20221;-61
2022/10/10 06:23:28;;;;;;;1999.90;999.90;;;;;;;11.54;100.00;94471.75;5053333;28;20260;-57
2022/10/10 06:25:54;;;;;;;1999.90;999.90;;;;;;;11.74;100.00;94464.16;5053207;28;20208;-60
2022/10/10 06:28:19;;;;;;;1999.90;999.90;;;;;;;11.74;100.00;94480.59;5052768;28;20202;-59
2022/10/10 06:30:47;;;;;;;1999.90;999.90;;;;;;;11.73;100.00;94496.22;5053129;28;20190;-58
2022/10/10 06:33:14;;;;;;;1999.90;999.90;;;;;;;11.82;100.00;94501.06;5053751;28;20190;-58
2022/10/10 06:35:44;;;;;;;1999.90;999.90;;;;;;;11.95;100.00;94499.91;5053043;28;20185;-59
2022/10/10 06:38:10;;;;;;;1999.90;999.90;;;;;;;12.24;100.00;94502.63;5053009;28;20184;-58
2022/10/10 06:40:35;;;;;;;1999.90;999.90;;;;;;;12.54;100.00;94504.84;5053667;28;20205;-62
2022/10/10 06:43:02;;;;;;;1999.90;999.90;;;;;;;12.74;100.00;94519.09;5053082;28;20184;-65
2022/10/10 06:45:27;;;;;;;1999.90;999.90;;;;;;;13.23;100.00;94512.06;5052928;28;20181;-71
2022/10/10 06:47:52;;;;;;;1999.90;999.90;;;;;;;13.75;100.00;94512.25;5053021;28;20192;-71
2022/10/10 06:50:18;;;;;;;1999.90;999.90;;;;;;;14.31;100.00;94512.25;5053913;28;20212;-71
2022/10/10 06:52:43;;;;;;;1999.90;999.90;;;;;;;14.80;100.00;94508.41;5052935;28;20537;-71
2022/10/10 06:55:08;;;;;;;1999.90;999.90;;;;;;;15.83;100.00;94454.22;5053534;28;20174;-71
2022/10/10 06:57:34;;;;;;;1999.90;999.90;;;;;;;16.14;100.00;94402.44;5053359;28;20178;-73
2022/10/10 06:59:59;;;;;;;1999.90;999.90;;;;;;;15.94;100.00;94404.94;5053439;28;20201;-68
2022/10/10 07:02:26;;;;;;;1999.90;999.90;;;;;;;15.86;100.00;94403.75;5053024;28;20193;-72
2022/10/10 07:04:51;;;;;;;1999.90;999.90;;;;;;;15.84;100.00;94427.44;5052625;28;20682;-73
2022/10/10 07:07:16;;;;;;;1999.90;999.90;;;;;;;15.54;100.00;94442.91;5052730;28;20261;-72
2022/10/10 07:09:42;;;;;;;1999.90;999.90;;;;;;;15.52;100.00;94461.09;5053128;28;20178;-72
2022/10/10 07:12:07;;;;;;;1999.90;999.90;;;;;;;15.55;100.00;94463.69;5052738;28;20176;-69
2022/10/10 07:14:33;;;;;;;1999.90;999.90;;;;;;;15.36;100.00;94481.41;5052973;28;20291;-70
2022/10/10 07:16:58;;;;;;;1999.90;999.90;;;;;;;15.36;100.00;94481.41;5052608;28;20174;-65
2022/10/10 07:19:23;;;;;;;1999.90;999.90;;;;;;;15.24;100.00;94504.28;5052600;28;20251;-60
2022/10/10 07:21:49;;;;;;;1999.90;999.90;;;;;;;15.30;100.00;94516.19;5053629;28;20170;-59
2022/10/10 07:24:15;;;;;;;1999.90;999.90;;;;;;;15.33;100.00;94515.28;5052534;28;20242;-59
2022/10/10 07:26:40;;;;;;;1999.90;999.90;;;;;;;15.51;100.00;94520.88;5052969;28;20178;-59
2022/10/10 07:29:06;;;;;;;1999.90;999.90;;;;;;;15.41;100.00;94527.56;5056434;28;20174;-59
2022/10/10 07:31:32;;;;;;;1999.90;999.90;;;;;;;15.29;100.00;94533.94;5056762;28;20178;-58
2022/10/10 07:33:57;;;;;;;1999.90;999.90;;;;;;;15.30;100.00;94542.97;5056140;28;20176;-58
2022/10/10 07:36:22;;;;;;;1999.90;999.90;;;;;;;15.24;100.00;94556.53;5057109;28;20193;-64
2022/10/10 07:38:50;;;;;;;1999.90;999.90;;;;;;;15.41;100.00;94559.84;5056683;28;20523;-60
2022/10/10 07:41:16;;;;;;;1999.90;999.90;;;;;;;15.50;100.00;94563.38;5056141;28;20202;-59
2022/10/10 07:43:41;;;;;;;1999.90;999.90;;;;;;;15.73;100.00;94562.81;5056698;28;20235;-60
2022/10/10 07:46:14;;;;;;;1999.90;999.90;;;;;;;15.69;100.00;94567.69;5056844;28;20178;-58
2022/10/10 07:48:40;;;;;;;1999.90;999.90;;;;;;;15.91;100.00;94565.59;5056797;28;20503;-58
2022/10/10 07:51:06;;;;;;;1999.90;999.90;;;;;;;16.06;100.00;94565.75;5056237;28;20181;-59
2022/10/10 07:53:31;;;;;;;1999.90;999.90;;;;;;;16.27;100.00;94560.09;5056232;28;20181;-59
2022/10/10 07:55:56;;;;;;;1999.90;999.90;;;;;;;16.38;100.00;94567.91;5055917;28;20174;-69
2022/10/10 07:58:22;;;;;;;1999.90;999.90;;;;;;;16.56;100.00;94569.88;5055954;28;20220;-70
2022/10/10 08:00:50;;;;;;;1999.90;999.90;;;;;;;16.71;100.00;94570.81;5055752;28;20315;-71
2022/10/10 08:03:15;;;;;;;1999.90;999.90;;;;;;;16.92;100.00;94559.56;5055753;28;20247;-71
2022/10/10 08:05:41;;;;;;;1999.90;999.90;;;;;;;17.21;100.00;94553.47;5055763;28;20272;-68
2022/10/10 08:08:08;;;;;;;1999.90;999.90;;;;;;;17.45;100.00;94546.06;5056363;28;20502;-69
2022/10/10 08:10:33;;;;;;;1999.90;999.90;;;;;;;17.40;100.00;94563.97;5055796;28;20307;-69
2022/10/10 08:12:58;;;;;;;1999.90;999.90;;;;;;;17.81;100.00;94551.38;5056190;28;20216;-62
2022/10/10 08:15:24;;;;;;;1999.90;999.90;;;;;;;17.91;100.00;94539.00;5055549;28;20182;-68
2022/10/10 08:17:49;;;;;;;1999.90;999.90;;;;;;;18.27;100.00;94533.19;5055376;28;20181;-70
2022/10/10 08:20:14;;;;;;;1999.90;999.90;;;;;;;18.55;100.00;94504.09;5055403;28;20232;-68
2022/10/10 08:22:40;;;;;;;1999.90;999.90;;;;;;;18.66;100.00;94504.31;5055922;28;20261;-67
2022/10/10 08:25:05;;;;;;;1999.90;999.90;;;;;;;18.86;100.00;94491.31;5055961;28;20233;-69
2022/10/10 08:27:31;;;;;;;1999.90;999.90;;;;;;;19.33;100.00;94479.22;5055227;28;20635;-69
2022/10/10 08:29:56;;;;;;;1999.90;999.90;;;;;;;19.80;100.00;94476.09;5055878;28;20182;-67
2022/10/10 08:32:22;;;;;;;1999.90;999.90;;;;;;;20.19;100.00;94459.94;5055477;28;20568;-68
2022/10/10 08:34:47;;;;;;;1999.90;999.90;;;;;;;20.12;100.00;94466.69;5054785;28;20200;-63
2022/10/10 08:37:12;;;;;;;1999.90;999.90;;;;;;;20.30;100.00;94460.84;5055953;28;20212;-62
2022/10/10 08:39:38;;;;;;;1999.90;999.90;;;;;;;20.98;100.00;94442.28;5054817;28;20202;-63
2022/10/10 08:42:03;;;;;;;1999.90;999.90;;;;;;;21.48;100.00;94423.94;5054649;28;20188;-63
2022/10/10 08:44:46;;;;;;;1999.90;999.90;;;;;;;22.01;100.00;94404.50;5055382;28;20273;-62
2022/10/10 08:47:20;;;;;;;1999.90;999.90;;;;;;;22.06;100.00;94402.97;5054615;28;20169;-62
2022/10/10 08:49:53;;;;;;;1999.90;999.90;;;;;;;22.51;100.00;94178.41;5054844;28;20245;-59
2022/10/10 08:52:54;;;;;;;1999.90;999.90;;;;;;;22.44;100.00;94310.47;5054808;28;20196;-55
2022/10/10 08:55:29;;;;;;;1999.90;999.90;;;;;;;22.43;100.00;94507.28;5054344;28;20232;-57
2022/10/10 08:58:01;;;;;;;1999.90;999.90;;;;;;;22.66;100.00;94663.28;5055152;28;20196;-57
2022/10/10 09:00:32;;;;;;;1999.90;999.90;;;;;;;22.65;100.00;94757.19;5054426;28;20719;-56
2022/10/10 09:02:59;;;;;;;1999.90;999.90;;;;;;;22.38;100.00;94866.28;5054548;28;20166;-57
2022/10/10 09:05:40;;;;;;;1999.90;999.90;;;;;;;22.72;100.00;94939.75;5055023;28;20194;-57
2022/10/10 09:08:37;;;;;;;1999.90;999.90;;;;;;;22.57;100.00;94966.97;5054564;28;20174;-60
2022/10/10 09:11:10;;;;;;;1999.90;999.90;;;;;;;22.61;100.00;95073.31;5054556;28;20177;-58
2022/10/10 09:13:44;;;;;;;1999.90;999.90;;;;;;;22.99;100.00;95120.31;5054806;28;20215;-56
2022/10/10 09:16:25;;;;;;;1999.90;999.90;;;;;;;23.49;100.00;95169.00;5054416;28;20184;-57
2022/10/10 09:18:51;;;;;;;1999.90;999.90;;;;;;;23.91;100.00;95233.28;5054995;28;20174;-58
2022/10/10 09:21:33;;;;;;;1999.90;999.90;;;;;;;24.47;100.00;95293.97;5054205;28;20404;-56
2022/10/10 09:24:09;;;;;;;1999.90;999.90;;;;;;;24.80;100.00;95347.31;5054820;28;20167;-57
2022/10/10 09:26:46;;;;;;;1999.90;999.90;;;;;;;24.64;100.00;95353.53;5053913;28;20166;-57
2022/10/10 09:29:23;;;;;;;1999.90;999.90;;;;;;;24.10;100.00;95374.81;5054508;28;20200;-62
2022/10/10 09:31:54;;;;;;;1999.90;999.90;;;;;;;24.90;100.00;95421.31;5054570;28;20243;-64
2022/10/10 09:34:35;;;;;;;1999.90;999.90;;;;;;;25.39;100.00;95449.66;5054097;28;20166;-62
2022/10/10 09:37:02;;;;;;;1999.90;999.90;;;;;;;25.65;100.00;95463.56;5054634;28;20237;-63
2022/10/10 09:39:39;;;;;;;1999.90;999.90;;;;;;;25.56;100.00;95472.16;5053436;28;20204;-63
2022/10/10 09:42:13;;;;;;;1999.90;999.90;;;;;;;25.81;100.00;95476.88;5054437;28;20162;-64
2022/10/10 09:44:39;;;;;;;1999.90;999.90;;;;;;;26.50;100.00;95481.81;5054415;28;20200;-62
2022/10/10 09:47:05;;;;;;;1999.90;999.90;;;;;;;26.40;100.00;95486.09;5053732;28;20170;-72
2022/10/10 09:49:32;;;;;;;1999.90;999.90;;;;;;;25.98;100.00;95477.78;5053533;28;20185;-70
2022/10/10 09:52:17;;;;;;;1999.90;999.90;;;;;;;25.77;100.00;95467.97;5053817;28;20170;-70
2022/10/10 09:54:43;;;;;;;1999.90;999.90;;;;;;;25.46;100.00;95476.44;5053621;28;20257;-71
2022/10/10 09:57:14;;;;;;;1999.90;999.90;;;;;;;25.25;100.00;95463.78;5053750;28;20216;-71
2022/10/10 09:59:41;;;;;;;1999.90;999.90;;;;;;;25.35;100.00;95470.75;5053416;28;20212;-72
2022/10/10 10:02:20;;;;;;;1999.90;999.90;;;;;;;25.42;100.00;95464.69;5054205;28;20201;-70
2022/10/10 10:04:47;;;;;;;1999.90;999.90;;;;;;;25.49;100.00;95469.81;5053730;28;20189;-66
2022/10/10 10:07:25;;;;;;;1999.90;999.90;;;;;;;25.47;100.00;95461.19;5053158;28;20189;-70
2022/10/10 10:09:57;;;;;;;1999.90;999.90;;;;;;;26.07;100.00;95480.34;5053440;28;20197;-70
2022/10/10 10:12:27;;;;;;;1999.90;999.90;;;;;;;26.03;100.00;95479.84;5053084;28;20192;-71
2022/10/10 10:14:59;;;;;;;1999.90;999.90;;;;;;;27.16;100.00;95490.34;5053550;28;20187;-72
2022/10/10 10:17:24;;;;;;;1999.90;999.90;;;;;;;27.63;94.53;95494.97;5053487;28;20178;-72
2022/10/10 10:19:50;;;;;;;1999.90;999.90;;;;;;;27.34;95.56;95498.28;5053120;28;20229;-72
2022/10/10 10:22:30;;;;;;;1999.90;999.90;;;;;;;26.79;100.00;95489.81;5053856;28;20170;-58
2022/10/10 10:24:56;;;;;;;1999.90;999.90;;;;;;;26.43;100.00;95487.09;5053758;28;20166;-65
2022/10/10 10:27:24;;;;;;;1999.90;999.90;;;;;;;25.83;100.00;95479.97;5053731;28;20220;-65
2022/10/10 10:29:52;;;;;;;1999.90;999.90;;;;;;;26.28;100.00;95478.94;5053279;28;20186;-57
2022/10/10 10:32:26;;;;;;;1999.90;999.90;;;;;;;26.15;100.00;95464.59;5053174;28;20208;-57
2022/10/10 10:35:10;;;;;;;1999.90;999.90;;;;;;;26.20;100.00;95471.50;5054028;28;20166;-56
2022/10/10 10:38:17;;;;;;;1999.90;999.90;;;;;;;26.04;100.00;95478.56;5053616;28;20241;-56
2022/10/10 10:41:03;;;;;;;1999.90;999.90;;;;;;;25.65;100.00;95463.56;5043856;28;20211;-58
2022/10/10 10:43:52;;;;;;;1999.90;999.90;;;;;;;25.62;100.00;95458.19;5053942;28;20214;-58
2022/10/10 10:46:29;;;;;;;1999.90;999.90;;;;;;;26.15;100.00;95464.59;5053667;28;20261;-69
2022/10/10 10:49:01;;;;;;;1999.90;999.90;;;;;;;25.81;100.00;95462.16;5053672;28;20177;-70
2022/10/10 10:51:45;;;;;;;1999.90;999.90;;;;;;;25.56;100.00;95458.16;5053168;28;20270;-68
2022/10/10 10:54:23;;;;;;;1999.90;999.90;;;;;;;25.36;100.00;95449.91;5053562;28;20173;-69